This is the latest recevied weather packets stored in our database for station/object OH2TI. If no packets are shown the sender has not sent any weather packets the latest 10 day(s).
| Time | Temp. | Humidity | Pressure | Rain* | Wind** | Luminosity | Snow |
|---|---|---|---|---|---|---|---|
| 1777133233 | 6.11° C | 60% | 986.1 hPa | - | - | - | - |
| 1777132375 | 6.67° C | 59% | 986.1 hPa | - | - | - | - |
| 1777131890 | 7.22° C | 60% | 986.1 hPa | - | - | - | - |
| 1777131023 | 7.22° C | 63% | 986 hPa | - | - | - | - |
| 1777130195 | 7.78° C | 61% | 986 hPa | - | - | - | - |
| 1777129393 | 8.33° C | 63% | 986 hPa | - | - | - | - |
| 1777128830 | 8.89° C | 62% | 986.1 hPa | - | - | - | - |
| 1777128410 | 8.33° C | 64% | 986.2 hPa | - | - | - | - |
| 1777127540 | 7.78° C | 68% | 986.2 hPa | - | - | - | - |
| 1777126845 | 7.22° C | 70% | 986.3 hPa | - | - | - | - |
| 1777125975 | 6.11° C | 74% | 986.4 hPa | - | - | - | - |
| 1777125210 | 5.56° C | 84% | 986.4 hPa | - | - | - | - |
| 1777124505 | 5° C | 82% | 986.4 hPa | - | - | - | - |
| 1777123775 | 5.56° C | 77% | 986.7 hPa | - | - | - | - |
| 1777123432 | 6.67° C | 73% | 986.8 hPa | - | - | - | - |
| 1777123040 | 7.78° C | 73% | 986.7 hPa | - | - | - | - |
| 1777122320 | 7.78° C | 73% | 986.7 hPa | - | - | - | - |
| 1777121823 | 7.78° C | 73% | 986.8 hPa | - | - | - | - |
| 1777121473 | 7.78° C | 74% | 986.8 hPa | - | - | - | - |
| 1777120777 | 7.22° C | 76% | 986.9 hPa | - | - | - | - |
| 1777120260 | 6.67° C | 75% | 987.1 hPa | - | - | - | - |
| 1777119913 | 6.67° C | 76% | 987.2 hPa | - | - | - | - |
| 1777119375 | 6.67° C | 75% | 987.4 hPa | - | - | - | - |
| 1777119065 | 6.67° C | 74% | 987.5 hPa | - | - | - | - |
| 1777118350 | 6.67° C | 76% | 987.7 hPa | - | - | - | - |
* Rain since midnight (hover to see other rain measurements)
** Current wind speed in m/s (hover to see current wind gust speed)